Time;durP1;ratioP1;P1;durP2;ratioP2;P2;SDS_P1;SDS_P2;PMS_P1;PMS_P2;Temp;Humidity;BMP_temperature;BMP_pressure;BME280_temperature;BME280_humidity;BME280_pressure;Samples;Min_cycle;Max_cycle;Signal;HPM_P1;HPM_P2
2023/06/01 00:00:24;;;;;;;11.38;4.00;;;12.40;99.90;;;;;;5030146;28;20033;-78
2023/06/01 00:02:50;;;;;;;10.73;4.38;;;12.30;99.90;;;;;;5030786;28;20099;-78
2023/06/01 00:05:16;;;;;;;11.15;4.18;;;12.30;99.90;;;;;;5030659;28;20033;-79
2023/06/01 00:07:41;;;;;;;7.88;3.65;;;12.30;99.90;;;;;;5030611;28;20041;-79
2023/06/01 00:10:07;;;;;;;11.30;4.40;;;12.30;99.90;;;;;;5030433;28;20424;-79
2023/06/01 00:12:33;;;;;;;12.20;4.13;;;12.30;99.90;;;;;;5046522;28;20037;-78
2023/06/01 00:14:59;;;;;;;8.70;3.95;;;12.40;99.90;;;;;;5030795;28;20044;-78
2023/06/01 00:17:24;;;;;;;8.48;3.53;;;12.30;99.90;;;;;;5045920;28;20048;-79
2023/06/01 00:19:50;;;;;;;10.43;3.97;;;12.30;99.90;;;;;;5030384;28;20056;-79
2023/06/01 00:22:16;;;;;;;10.68;4.18;;;12.40;99.90;;;;;;5047196;28;20059;-80
2023/06/01 00:24:42;;;;;;;10.25;3.90;;;12.30;99.90;;;;;;5028813;28;20041;-78
2023/06/01 00:27:07;;;;;;;8.68;4.18;;;12.30;99.90;;;;;;5029901;28;20096;-79
2023/06/01 00:29:33;;;;;;;9.82;4.22;;;12.30;99.90;;;;;;5030166;28;20041;-79
2023/06/01 00:31:58;;;;;;;10.15;4.30;;;12.30;99.90;;;;;;5046486;28;20378;-76
2023/06/01 00:34:24;;;;;;;11.25;3.90;;;12.30;99.90;;;;;;5046462;28;20045;-79
2023/06/01 00:36:50;;;;;;;10.68;4.15;;;12.30;99.90;;;;;;5030099;28;20041;-79
2023/06/01 00:39:15;;;;;;;10.70;4.40;;;12.40;99.90;;;;;;5034453;28;20041;-78
2023/06/01 00:41:41;;;;;;;14.45;4.53;;;12.20;99.90;;;;;;5032159;28;20049;-77
2023/06/01 00:44:07;;;;;;;10.60;4.50;;;12.10;99.90;;;;;;5034068;28;20038;-78
2023/06/01 00:46:32;;;;;;;12.73;4.45;;;12.20;99.90;;;;;;5051394;28;20043;-79
2023/06/01 00:48:58;;;;;;;16.95;4.28;;;12.10;99.90;;;;;;5050408;28;20037;-78
2023/06/01 00:51:25;;;;;;;8.60;3.72;;;12.10;99.90;;;;;;5049941;28;20075;-78
2023/06/01 00:53:50;;;;;;;10.82;4.70;;;12.10;99.90;;;;;;5033790;28;20562;-78
2023/06/01 00:56:17;;;;;;;11.18;4.55;;;12.20;99.90;;;;;;5049282;28;20049;-78
2023/06/01 00:58:43;;;;;;;13.63;4.20;;;12.20;99.90;;;;;;5033810;28;20038;-78
2023/06/01 01:01:18;;;;;;;9.95;4.38;;;12.10;99.90;;;;;;5024022;28;20056;-79
2023/06/01 01:03:46;;;;;;;10.10;4.15;;;12.00;99.90;;;;;;5033897;28;20077;-78
2023/06/01 01:06:28;;;;;;;8.32;4.45;;;12.10;99.90;;;;;;5033735;28;20072;-79
2023/06/01 01:09:17;;;;;;;10.38;4.50;;;12.00;99.90;;;;;;5032904;28;20046;-76
2023/06/01 01:11:50;;;;;;;12.63;3.88;;;12.10;99.90;;;;;;5031821;28;20037;-79
2023/06/01 01:14:23;;;;;;;10.40;4.45;;;12.10;99.90;;;;;;5032742;28;20039;-78
2023/06/01 01:17:02;;;;;;;10.55;4.93;;;12.10;99.90;;;;;;5033565;28;20549;-79
2023/06/01 01:19:50;;;;;;;9.90;4.47;;;12.10;99.90;;;;;;5017022;28;20049;-79
2023/06/01 01:22:40;;;;;;;12.35;4.60;;;12.10;99.90;;;;;;5033473;28;20042;-78
2023/06/01 01:25:09;;;;;;;11.82;4.70;;;12.10;99.90;;;;;;5033786;28;20045;-78
2023/06/01 01:27:53;;;;;;;11.80;5.07;;;12.10;99.90;;;;;;5033481;28;20046;-79
2023/06/01 01:30:22;;;;;;;12.63;4.93;;;12.00;99.90;;;;;;5033725;28;20114;-78
2023/06/01 01:32:50;;;;;;;11.40;4.53;;;11.80;99.90;;;;;;5032571;28;20088;-78
2023/06/01 01:35:16;;;;;;;9.15;4.70;;;11.80;99.90;;;;;;5033033;28;20705;-78
2023/06/01 01:37:54;;;;;;;9.15;4.45;;;11.90;99.90;;;;;;5032441;28;20566;-78
2023/06/01 01:40:20;;;;;;;9.30;4.20;;;11.90;99.90;;;;;;5032809;28;20037;-77
2023/06/01 01:42:46;;;;;;;8.65;4.32;;;11.90;99.90;;;;;;5049733;28;20551;-78
2023/06/01 01:45:12;;;;;;;6.55;3.88;;;11.90;99.90;;;;;;5029795;28;20136;-78
2023/06/01 01:48:03;;;;;;;8.65;4.70;;;11.90;99.90;;;;;;5033002;28;20041;-79
2023/06/01 01:50:36;;;;;;;10.50;4.38;;;12.00;99.90;;;;;;5014124;28;20056;-78
2023/06/01 01:53:04;;;;;;;8.88;4.20;;;11.90;99.90;;;;;;5012318;28;20065;-78
2023/06/01 01:55:33;;;;;;;10.75;4.35;;;11.90;99.90;;;;;;5016080;28;20128;-78
2023/06/01 01:58:01;;;;;;;11.93;4.35;;;11.90;99.90;;;;;;5032572;28;20046;-78
2023/06/01 02:00:27;;;;;;;9.23;3.88;;;11.90;99.90;;;;;;5031085;28;20033;-78
2023/06/01 02:02:52;;;;;;;8.93;4.53;;;11.90;99.90;;;;;;5032247;28;20048;-78
2023/06/01 02:05:18;;;;;;;10.20;4.43;;;11.90;99.90;;;;;;5032484;28;20128;-78
2023/06/01 02:07:45;;;;;;;9.27;4.28;;;11.90;99.90;;;;;;5049615;28;20048;-79
2023/06/01 02:10:11;;;;;;;9.73;4.15;;;12.00;99.90;;;;;;5048974;28;20030;-78
2023/06/01 02:12:36;;;;;;;12.75;4.25;;;12.00;99.90;;;;;;5048778;28;20442;-78
2023/06/01 02:15:02;;;;;;;9.65;3.92;;;12.00;99.90;;;;;;5047978;28;20620;-78
2023/06/01 02:17:27;;;;;;;7.28;4.10;;;12.10;99.90;;;;;;5032386;28;20037;-78
2023/06/01 02:19:53;;;;;;;9.30;3.83;;;11.90;99.90;;;;;;5015791;28;20034;-78
2023/06/01 02:22:19;;;;;;;7.25;3.67;;;11.90;99.90;;;;;;5032081;28;20087;-78
2023/06/01 02:24:45;;;;;;;9.75;3.70;;;11.90;99.90;;;;;;5047979;28;20044;-79
2023/06/01 02:27:10;;;;;;;8.52;3.60;;;11.90;99.90;;;;;;5031382;28;20045;-78
2023/06/01 02:29:36;;;;;;;8.30;3.67;;;11.80;99.90;;;;;;5031389;28;20141;-77
2023/06/01 02:32:02;;;;;;;8.23;3.20;;;11.70;99.90;;;;;;5031186;28;20041;-78
2023/06/01 02:34:27;;;;;;;10.80;3.28;;;11.60;99.90;;;;;;5032198;28;20037;-77
2023/06/01 02:36:55;;;;;;;7.30;3.10;;;11.60;99.90;;;;;;5032545;28;20045;-78
2023/06/01 02:39:21;;;;;;;7.70;3.00;;;11.50;99.90;;;;;;5047394;28;20049;-78
2023/06/01 02:41:47;;;;;;;7.72;3.13;;;11.60;99.90;;;;;;5031385;28;20111;-78
2023/06/01 02:44:12;;;;;;;6.82;3.33;;;11.60;99.90;;;;;;5031666;28;20037;-78
2023/06/01 02:46:37;;;;;;;10.40;3.17;;;11.60;99.90;;;;;;5047839;28;20064;-78
2023/06/01 02:49:03;;;;;;;6.55;2.90;;;11.70;99.90;;;;;;5046756;28;20048;-78
2023/06/01 02:51:31;;;;;;;9.50;3.60;;;11.70;99.90;;;;;;5047781;28;20501;-78
2023/06/01 02:53:56;;;;;;;6.38;2.75;;;11.70;99.90;;;;;;5030475;28;20045;-78
2023/06/01 02:56:22;;;;;;;8.65;3.30;;;11.70;99.90;;;;;;5031816;28;20528;-78
2023/06/01 02:58:48;;;;;;;10.25;3.00;;;11.70;99.90;;;;;;5031926;28;20038;-79
2023/06/01 03:01:14;;;;;;;9.40;3.67;;;11.60;99.90;;;;;;5029589;28;20037;-78
2023/06/01 03:03:40;;;;;;;11.38;3.83;;;11.60;99.90;;;;;;5047570;28;20412;-78
2023/06/01 03:06:06;;;;;;;13.50;3.65;;;11.60;99.90;;;;;;5014099;28;20034;-78
2023/06/01 03:08:32;;;;;;;11.35;3.90;;;11.60;99.90;;;;;;5046211;28;20045;-77
2023/06/01 03:10:57;;;;;;;10.85;4.30;;;11.50;99.90;;;;;;5030870;28;20041;-77
2023/06/01 03:13:23;;;;;;;10.75;4.13;;;11.50;99.90;;;;;;5031469;28;20045;-78
2023/06/01 03:15:50;;;;;;;6.63;3.75;;;11.50;99.90;;;;;;5046678;28;20049;-78
2023/06/01 03:18:15;;;;;;;6.90;3.50;;;11.50;99.90;;;;;;5014625;28;20046;-77
2023/06/01 03:20:41;;;;;;;9.32;3.60;;;11.50;99.90;;;;;;5030832;28;20582;-77
2023/06/01 03:23:06;;;;;;;9.85;3.65;;;11.50;99.90;;;;;;5030548;28;20030;-77
2023/06/01 03:25:33;;;;;;;7.80;3.47;;;11.60;99.90;;;;;;5030850;28;20033;-79
2023/06/01 03:27:58;;;;;;;9.38;4.07;;;11.60;99.90;;;;;;5031139;28;20535;-78
2023/06/01 03:30:24;;;;;;;10.10;3.90;;;11.60;99.90;;;;;;5029784;28;20041;-77
2023/06/01 03:32:50;;;;;;;10.73;4.03;;;11.50;99.90;;;;;;5030994;28;20037;-77
2023/06/01 03:35:16;;;;;;;7.85;4.10;;;11.50;99.90;;;;;;5014668;28;20051;-78
2023/06/01 03:37:43;;;;;;;11.82;3.83;;;11.60;99.90;;;;;;5047481;28;20045;-78
2023/06/01 03:40:12;;;;;;;11.80;4.50;;;11.60;99.90;;;;;;5030975;28;20049;-77
2023/06/01 03:42:42;;;;;;;11.88;4.07;;;11.60;99.90;;;;;;5030437;28;20048;-78
2023/06/01 03:45:09;;;;;;;10.57;3.63;;;11.60;99.90;;;;;;5029667;28;20064;-78
2023/06/01 03:47:35;;;;;;;5.85;3.60;;;11.60;99.90;;;;;;5047057;28;20065;-77
2023/06/01 03:50:01;;;;;;;9.50;3.60;;;11.60;99.90;;;;;;5030470;28;20083;-77
2023/06/01 03:52:30;;;;;;;12.82;4.28;;;11.60;99.90;;;;;;5030601;28;20037;-77
2023/06/01 03:54:57;;;;;;;9.65;4.00;;;11.60;99.90;;;;;;5046971;28;20044;-78
2023/06/01 03:57:23;;;;;;;10.18;4.47;;;11.60;99.90;;;;;;5029479;28;20034;-78
2023/06/01 03:59:49;;;;;;;9.60;3.90;;;11.60;99.90;;;;;;5030067;28;20060;-78
2023/06/01 04:02:14;;;;;;;11.95;3.90;;;11.60;99.90;;;;;;5030147;28;20087;-78
2023/06/01 04:04:45;;;;;;;10.38;3.90;;;11.70;99.90;;;;;;5030289;28;20038;-77
2023/06/01 04:07:14;;;;;;;12.18;4.60;;;11.70;99.90;;;;;;5031764;28;20045;-78
2023/06/01 04:09:40;;;;;;;9.90;3.95;;;11.70;99.90;;;;;;5047155;28;20408;-77
2023/06/01 04:12:06;;;;;;;8.38;4.10;;;11.70;99.90;;;;;;5028961;28;20037;-78
2023/06/01 04:14:32;;;;;;;8.50;3.65;;;11.70;99.90;;;;;;5029130;28;20034;-79
2023/06/01 04:16:57;;;;;;;7.88;3.90;;;11.60;99.90;;;;;;5030354;28;20056;-78
2023/06/01 04:19:23;;;;;;;9.52;4.88;;;11.60;99.90;;;;;;5030201;28;20415;-78
2023/06/01 04:21:49;;;;;;;7.68;3.65;;;11.50;99.90;;;;;;5029769;28;20041;-78
2023/06/01 04:24:15;;;;;;;11.48;3.97;;;11.60;99.90;;;;;;5046761;28;20037;-78
2023/06/01 04:26:41;;;;;;;10.60;4.47;;;11.60;99.90;;;;;;5046423;28;20053;-77
2023/06/01 04:29:11;;;;;;;7.28;3.78;;;11.60;99.90;;;;;;5029940;28;20393;-76
2023/06/01 04:31:37;;;;;;;10.10;3.92;;;11.70;99.90;;;;;;5028741;28;20081;-77
2023/06/01 04:34:05;;;;;;;8.35;3.95;;;11.70;99.90;;;;;;5029852;28;20042;-78
2023/06/01 04:36:32;;;;;;;7.82;3.95;;;11.70;99.90;;;;;;5030396;28;20057;-77
2023/06/01 04:38:58;;;;;;;7.40;3.17;;;11.60;99.90;;;;;;5030816;28;20088;-78
2023/06/01 04:41:28;;;;;;;9.88;3.67;;;11.50;99.90;;;;;;5046191;28;20146;-76
2023/06/01 04:43:54;;;;;;;8.65;3.65;;;11.50;99.90;;;;;;5030279;28;20400;-78
2023/06/01 04:46:24;;;;;;;11.10;3.53;;;11.50;99.90;;;;;;5046666;28;20120;-78
2023/06/01 04:48:51;;;;;;;7.72;3.47;;;11.50;99.90;;;;;;5046526;28;20065;-78
2023/06/01 04:51:20;;;;;;;6.97;3.15;;;11.50;99.90;;;;;;5029471;28;20135;-77
2023/06/01 04:53:51;;;;;;;8.23;3.10;;;11.50;99.90;;;;;;5029615;28;20048;-77
2023/06/01 04:56:24;;;;;;;10.55;2.92;;;11.50;99.90;;;;;;5029593;28;20041;-78
2023/06/01 04:58:51;;;;;;;;;;;11.50;99.90;;;;;;5030089;28;20056;-78
2023/06/01 05:01:17;;;;;;;9.00;3.10;;;11.50;99.90;;;;;;5029514;28;19917;-78
2023/06/01 05:03:43;;;;;;;6.28;3.20;;;11.60;99.90;;;;;;5028759;28;20048;-77
2023/06/01 05:06:11;;;;;;;9.55;3.28;;;11.60;99.90;;;;;;5010389;28;20030;-77
2023/06/01 05:08:38;;;;;;;6.22;3.15;;;11.60;99.90;;;;;;5023345;28;20125;-77
2023/06/01 05:11:03;;;;;;;8.38;3.33;;;11.60;99.90;;;;;;5041442;28;20050;-78
2023/06/01 05:13:29;;;;;;;12.70;3.83;;;11.60;99.90;;;;;;5029015;28;20084;-78
2023/06/01 05:15:55;;;;;;;6.22;3.15;;;11.60;99.90;;;;;;5013163;28;20100;-78
2023/06/01 05:18:20;;;;;;;11.73;3.80;;;11.50;99.90;;;;;;5046401;28;20560;-78
2023/06/01 05:20:46;;;;;;;10.48;4.13;;;11.60;99.90;;;;;;5029383;28;20045;-77
2023/06/01 05:23:11;;;;;;;8.55;3.40;;;11.50;99.90;;;;;;5046547;28;20144;-77
2023/06/01 05:25:37;;;;;;;7.97;3.78;;;11.50;99.90;;;;;;5033198;28;20094;-78
2023/06/01 05:28:03;;;;;;;9.60;4.30;;;11.60;99.90;;;;;;5031252;28;20049;-78
2023/06/01 05:30:28;;;;;;;10.30;4.50;;;11.50;99.90;;;;;;5030900;28;20041;-78
2023/06/01 05:32:54;;;;;;;8.00;3.80;;;11.50;99.90;;;;;;5015954;28;20583;-78
2023/06/01 05:35:20;;;;;;;8.55;4.28;;;11.50;99.90;;;;;;5032265;28;20112;-77
2023/06/01 05:37:45;;;;;;;8.68;4.40;;;11.50;99.90;;;;;;5032774;28;20045;-78
2023/06/01 05:40:11;;;;;;;7.88;4.40;;;11.50;99.90;;;;;;5046242;28;20515;-75
2023/06/01 05:42:37;;;;;;;10.30;4.22;;;11.40;99.90;;;;;;5048050;28;20037;-78
2023/06/01 05:45:03;;;;;;;9.27;4.70;;;11.40;99.90;;;;;;5054423;28;20389;-77
2023/06/01 05:47:28;;;;;;;8.52;4.32;;;11.50;99.90;;;;;;5024548;28;20068;-77
2023/06/01 05:49:54;;;;;;;8.55;4.60;;;11.50;99.90;;;;;;5032624;28;20045;-77
2023/06/01 05:52:19;;;;;;;10.23;4.60;;;11.50;99.90;;;;;;5035345;28;20037;-77
2023/06/01 05:54:45;;;;;;;12.15;4.22;;;11.60;99.90;;;;;;5031761;28;20069;-78
2023/06/01 05:57:10;;;;;;;7.28;3.80;;;11.60;99.90;;;;;;5032523;28;20075;-78
2023/06/01 05:59:36;;;;;;;8.25;4.13;;;11.60;99.90;;;;;;5032379;28;20045;-79
2023/06/01 06:02:01;;;;;;;11.48;4.38;;;11.60;99.90;;;;;;5049820;28;20082;-79
2023/06/01 06:04:27;;;;;;;12.00;5.00;;;11.60;99.90;;;;;;5050476;28;20048;-78
2023/06/01 06:06:53;;;;;;;7.45;4.18;;;11.60;99.90;;;;;;5034666;28;20484;-76
2023/06/01 06:09:19;;;;;;;9.88;4.40;;;11.60;99.90;;;;;;5029990;28;20037;-79
2023/06/01 06:11:44;;;;;;;7.97;3.95;;;11.60;99.90;;;;;;5033504;28;20037;-78
2023/06/01 06:14:13;;;;;;;8.63;3.55;;;11.60;99.90;;;;;;5014986;28;20037;-78
2023/06/01 06:16:39;;;;;;;7.40;3.80;;;11.60;99.90;;;;;;5031366;28;20135;-77
2023/06/01 06:19:05;;;;;;;7.10;3.50;;;11.60;99.90;;;;;;5029875;28;20041;-80
2023/06/01 06:21:31;;;;;;;6.10;2.97;;;11.60;99.90;;;;;;5028014;28;20049;-77
2023/06/01 06:23:58;;;;;;;5.13;2.50;;;11.60;99.90;;;;;;5030753;28;20037;-77
2023/06/01 06:26:26;;;;;;;5.38;2.45;;;11.70;99.90;;;;;;5012204;28;20033;-78
2023/06/01 06:28:52;;;;;;;5.15;2.63;;;11.70;99.90;;;;;;5029577;28;20071;-77
2023/06/01 06:31:17;;;;;;;7.75;3.10;;;11.80;99.90;;;;;;5028141;28;20041;-76
2023/06/01 06:33:43;;;;;;;6.90;2.60;;;11.80;99.90;;;;;;5030473;28;20048;-77
2023/06/01 06:36:08;;;;;;;6.53;3.20;;;11.80;99.90;;;;;;5028795;28;20124;-78
2023/06/01 06:38:34;;;;;;;7.63;3.17;;;11.90;99.90;;;;;;5016308;28;20041;-76
2023/06/01 06:40:59;;;;;;;6.35;2.45;;;11.90;99.90;;;;;;5029106;28;20083;-77
2023/06/01 06:43:25;;;;;;;6.47;2.85;;;11.90;99.90;;;;;;5026165;28;20042;-78
2023/06/01 06:45:51;;;;;;;6.22;2.80;;;11.90;99.90;;;;;;5026431;28;20052;-78
2023/06/01 06:48:16;;;;;;;7.53;2.80;;;12.00;99.90;;;;;;5030504;28;20116;-78
2023/06/01 06:50:44;;;;;;;6.82;2.67;;;12.00;99.90;;;;;;5029910;28;20124;-78
2023/06/01 06:53:10;;;;;;;7.22;3.05;;;11.90;99.90;;;;;;5014721;28;20048;-78
2023/06/01 06:55:36;;;;;;;6.07;2.47;;;11.90;99.90;;;;;;5029132;28;20041;-79
2023/06/01 06:58:02;;;;;;;6.07;2.65;;;11.90;99.90;;;;;;5028840;28;20042;-79
2023/06/01 07:00:27;;;;;;;6.00;2.40;;;11.90;99.90;;;;;;5022904;28;20033;-78
2023/06/01 07:02:53;;;;;;;4.32;2.15;;;11.90;99.90;;;;;;5047349;28;20496;-78
2023/06/01 07:05:19;;;;;;;5.05;2.60;;;11.90;99.90;;;;;;5025645;28;20038;-78
2023/06/01 07:07:44;;;;;;;4.78;2.20;;;12.00;99.90;;;;;;5033040;28;20029;-78
2023/06/01 07:10:10;;;;;;;3.88;2.00;;;12.00;99.90;;;;;;5048096;28;20175;-77
2023/06/01 07:12:36;;;;;;;6.05;2.42;;;12.00;99.90;;;;;;5041316;28;20042;-78
2023/06/01 07:15:02;;;;;;;5.13;2.28;;;12.00;99.90;;;;;;5028249;28;20041;-77
2023/06/01 07:17:27;;;;;;;4.32;1.88;;;12.00;99.90;;;;;;5025327;28;20493;-77
2023/06/01 07:19:53;;;;;;;4.45;2.08;;;12.10;99.90;;;;;;5028250;28;20056;-78
2023/06/01 07:22:20;;;;;;;3.42;1.85;;;12.20;99.90;;;;;;5031049;28;20493;-78
2023/06/01 07:24:47;;;;;;;7.10;2.10;;;12.20;99.90;;;;;;5021855;28;20064;-78
2023/06/01 07:27:13;;;;;;;4.72;1.85;;;12.20;99.90;;;;;;5028730;28;20509;-78
2023/06/01 07:29:39;;;;;;;4.53;2.22;;;12.20;99.90;;;;;;5029476;28;20073;-77
2023/06/01 07:32:05;;;;;;;4.22;2.30;;;12.20;99.90;;;;;;5028842;28;20455;-78
2023/06/01 07:34:33;;;;;;;4.97;1.98;;;12.20;99.90;;;;;;5020136;28;20045;-78
2023/06/01 07:36:59;;;;;;;4.07;2.28;;;12.20;99.90;;;;;;5021019;28;20042;-78
2023/06/01 07:39:25;;;;;;;6.85;2.80;;;12.10;99.90;;;;;;5024939;28;20091;-78
2023/06/01 07:41:53;;;;;;;7.32;3.03;;;12.20;99.90;;;;;;5024635;28;20518;-77
2023/06/01 07:44:20;;;;;;;4.15;2.22;;;12.20;99.90;;;;;;5012063;28;20148;-78
2023/06/01 07:46:45;;;;;;;5.13;2.50;;;12.20;99.90;;;;;;5027349;28;20567;-77
2023/06/01 07:49:13;;;;;;;5.68;2.10;;;12.30;99.90;;;;;;5043620;28;20050;-77
2023/06/01 07:51:42;;;;;;;5.03;2.47;;;12.30;99.90;;;;;;5040212;28;20048;-76
2023/06/01 07:54:08;;;;;;;5.22;2.20;;;12.40;99.90;;;;;;5027426;28;20124;-77
2023/06/01 07:56:34;;;;;;;7.10;2.22;;;12.40;99.90;;;;;;5020464;28;20592;-77
2023/06/01 07:58:59;;;;;;;5.03;2.17;;;12.30;99.90;;;;;;5027305;28;20084;-78
2023/06/01 08:01:25;;;;;;;3.15;2.08;;;12.30;99.90;;;;;;5026405;28;20075;-78
2023/06/01 08:03:51;;;;;;;6.43;2.10;;;12.20;99.90;;;;;;5024101;28;20067;-77
2023/06/01 08:06:16;;;;;;;5.28;2.67;;;12.10;99.90;;;;;;5019424;28;20041;-77
2023/06/01 08:08:42;;;;;;;6.45;2.75;;;12.20;99.90;;;;;;5021529;28;20049;-77
2023/06/01 08:11:09;;;;;;;4.97;2.10;;;12.10;99.90;;;;;;5020615;28;20076;-78
2023/06/01 08:13:37;;;;;;;4.28;2.10;;;12.10;99.90;;;;;;5037046;28;20057;-77
2023/06/01 08:16:03;;;;;;;4.57;2.40;;;12.00;99.90;;;;;;5010663;28;20123;-78
2023/06/01 08:18:30;;;;;;;4.82;2.13;;;12.00;99.90;;;;;;5018066;28;20438;-77
2023/06/01 08:20:56;;;;;;;5.88;2.55;;;12.00;99.90;;;;;;5010641;28;20126;-78
2023/06/01 08:23:24;;;;;;;6.80;2.17;;;12.00;99.90;;;;;;5007044;28;20037;-78
2023/06/01 08:25:50;;;;;;;5.38;2.00;;;12.10;99.90;;;;;;5039776;28;20112;-78
2023/06/01 08:28:16;;;;;;;5.30;2.45;;;12.20;99.90;;;;;;5021397;28;20116;-77
2023/06/01 08:30:41;;;;;;;5.38;2.50;;;12.20;99.90;;;;;;5033856;28;20058;-78
2023/06/01 08:33:07;;;;;;;6.88;2.60;;;12.30;99.90;;;;;;5023874;28;20048;-78
2023/06/01 08:35:33;;;;;;;4.88;2.38;;;12.40;99.90;;;;;;5022499;28;20048;-77
2023/06/01 08:38:02;;;;;;;5.57;2.30;;;12.40;99.90;;;;;;5012507;28;20041;-78
2023/06/01 08:40:31;;;;;;;5.13;2.47;;;12.40;99.90;;;;;;5024945;28;20385;-78
2023/06/01 08:43:18;;;;;;;5.97;2.17;;;12.50;99.90;;;;;;5024073;28;20534;-77
2023/06/01 08:45:45;;;;;;;6.57;2.80;;;12.50;99.90;;;;;;5044593;28;20037;-78
2023/06/01 08:48:14;;;;;;;8.63;3.13;;;12.50;99.90;;;;;;5028518;28;20041;-78
2023/06/01 08:50:40;;;;;;;9.85;3.58;;;12.50;99.90;;;;;;5025760;28;20033;-78
2023/06/01 08:53:06;;;;;;;12.30;4.10;;;12.50;99.90;;;;;;5026912;28;20037;-76
2023/06/01 08:55:32;;;;;;;11.80;4.22;;;12.40;99.90;;;;;;5027735;28;20056;-76
2023/06/01 08:57:58;;;;;;;8.27;3.30;;;12.40;99.90;;;;;;5024698;28;20037;-77
2023/06/01 09:00:24;;;;;;;7.85;3.42;;;12.40;99.90;;;;;;5030776;28;20472;-77
2023/06/01 09:02:50;;;;;;;12.13;3.67;;;12.40;99.90;;;;;;5015510;28;20084;-77
2023/06/01 09:05:17;;;;;;;8.85;3.92;;;12.40;99.90;;;;;;5032069;28;20065;-77
2023/06/01 09:07:42;;;;;;;8.02;3.10;;;12.30;99.90;;;;;;5029385;28;20037;-77
2023/06/01 09:10:08;;;;;;;12.25;3.58;;;12.40;99.90;;;;;;5031112;28;20748;-77
2023/06/01 09:12:34;;;;;;;9.65;3.22;;;12.40;99.90;;;;;;5031835;28;20124;-77
2023/06/01 09:15:16;;;;;;;9.38;3.35;;;12.60;99.90;;;;;;5033373;28;20045;-77
2023/06/01 09:17:47;;;;;;;8.43;2.70;;;12.70;99.90;;;;;;5025976;28;20041;-78
2023/06/01 09:20:14;;;;;;;12.23;3.53;;;12.70;99.90;;;;;;5023263;28;20052;-78
2023/06/01 09:22:45;;;;;;;9.05;2.92;;;12.80;99.90;;;;;;5027613;28;20056;-78
2023/06/01 09:25:15;;;;;;;10.82;3.00;;;12.80;99.90;;;;;;5022421;28;20496;-77
2023/06/01 09:27:46;;;;;;;9.52;2.75;;;12.70;99.90;;;;;;5031647;28;20048;-77
2023/06/01 09:30:16;;;;;;;15.07;2.95;;;12.70;99.90;;;;;;5049020;28;20037;-76
2023/06/01 09:32:42;;;;;;;9.85;2.60;;;12.80;99.90;;;;;;5024295;28;20534;-78
2023/06/01 09:35:08;;;;;;;6.50;2.55;;;12.80;99.90;;;;;;5038355;28;20037;-76
2023/06/01 09:37:35;;;;;;;8.38;2.78;;;12.90;99.90;;;;;;5033199;28;20149;-77
2023/06/01 09:40:01;;;;;;;8.93;2.78;;;12.90;99.90;;;;;;5032185;28;20045;-78
2023/06/01 09:42:34;;;;;;;9.85;2.63;;;12.80;99.90;;;;;;5028050;28;20113;-77
2023/06/01 09:45:30;;;;;;;7.57;2.30;;;12.80;99.90;;;;;;5040734;28;20064;-78
2023/06/01 09:48:16;;;;;;;7.43;2.50;;;12.80;99.90;;;;;;5014596;28;20057;-78
2023/06/01 09:50:42;;;;;;;8.13;2.40;;;12.80;99.90;;;;;;5040287;28;20642;-77
2023/06/01 09:53:08;;;;;;;9.50;3.00;;;12.90;99.90;;;;;;5022940;28;20037;-78
2023/06/01 09:55:33;;;;;;;10.35;3.08;;;12.90;99.90;;;;;;5025529;28;20044;-77
2023/06/01 09:58:20;;;;;;;8.27;2.90;;;13.00;99.90;;;;;;5027422;28;20161;-77
2023/06/01 10:00:47;;;;;;;10.95;2.42;;;13.00;99.90;;;;;;5045882;28;20030;-77
2023/06/01 10:03:15;;;;;;;7.90;2.50;;;13.10;99.90;;;;;;5025753;28;20045;-77
2023/06/01 10:05:43;;;;;;;8.55;2.35;;;13.20;99.90;;;;;;5021893;28;20492;-78
2023/06/01 10:08:11;;;;;;;5.13;2.63;;;13.10;99.90;;;;;;5031892;28;20072;-78
2023/06/01 10:10:37;;;;;;;7.82;2.40;;;13.30;99.90;;;;;;5025716;28;20041;-78
2023/06/01 10:13:02;;;;;;;8.23;2.65;;;13.40;99.90;;;;;;5008565;28;20120;-78
2023/06/01 10:15:28;;;;;;;8.38;3.10;;;13.30;99.90;;;;;;5022257;28;20128;-78
2023/06/01 10:17:55;;;;;;;8.18;2.60;;;13.30;99.90;;;;;;5027069;28;20033;-78
2023/06/01 10:20:21;;;;;;;10.60;3.55;;;13.30;99.90;;;;;;5018905;28;20152;-77
2023/06/01 10:22:48;;;;;;;12.38;3.20;;;13.30;99.90;;;;;;5017981;28;20029;-76
2023/06/01 10:25:17;;;;;;;8.80;3.25;;;13.20;99.90;;;;;;5022027;28;20065;-77
2023/06/01 10:27:54;;;;;;;8.43;2.78;;;13.20;99.90;;;;;;5022042;28;20452;-76
2023/06/01 10:30:19;;;;;;;8.68;2.40;;;13.10;99.90;;;;;;5022166;28;20037;-77
2023/06/01 10:32:48;;;;;;;8.10;3.10;;;13.30;99.90;;;;;;5005942;28;20460;-78
2023/06/01 10:35:26;;;;;;;5.78;2.38;;;13.60;99.90;;;;;;5029266;28;20408;-76
2023/06/01 10:38:06;;;;;;;8.63;2.60;;;13.70;99.90;;;;;;5029233;28;20427;-76
2023/06/01 10:40:37;;;;;;;8.45;2.65;;;13.70;99.90;;;;;;5019693;28;20467;-75
2023/06/01 10:43:03;;;;;;;9.48;2.80;;;13.80;99.90;;;;;;5048704;28;20048;-77
2023/06/01 10:45:39;;;;;;;8.80;2.65;;;13.80;99.90;;;;;;5031962;28;20484;-77
2023/06/01 10:48:13;;;;;;;7.60;2.90;;;13.80;99.90;;;;;;5033255;28;20042;-75
2023/06/01 10:50:40;;;;;;;10.10;2.90;;;13.90;99.90;;;;;;5026293;28;20461;-77
2023/06/01 10:53:26;;;;;;;7.50;2.40;;;14.00;99.90;;;;;;5018133;28;20037;-76
2023/06/01 10:56:16;;;;;;;9.50;3.08;;;13.90;99.90;;;;;;5030956;28;20064;-76
2023/06/01 10:58:42;;;;;;;8.15;3.17;;;13.80;99.90;;;;;;5028745;28;20485;-77
2023/06/01 11:01:08;;;;;;;11.43;2.85;;;13.80;99.90;;;;;;5032202;28;20041;-76
2023/06/01 11:03:47;;;;;;;7.78;2.53;;;13.70;99.90;;;;;;5025037;28;20037;-76
2023/06/01 11:06:31;;;;;;;7.63;3.10;;;13.70;99.90;;;;;;5024201;28;20029;-76
2023/06/01 11:08:59;;;;;;;11.20;3.05;;;13.70;99.90;;;;;;5020642;28;20046;-77
2023/06/01 11:11:47;;;;;;;7.38;2.85;;;13.80;99.90;;;;;;5029689;28;20073;-76
2023/06/01 11:14:14;;;;;;;6.30;2.60;;;13.90;99.90;;;;;;5025064;28;20038;-76
2023/06/01 11:16:40;;;;;;;7.30;2.95;;;13.90;99.90;;;;;;5027291;28;20519;-77
2023/06/01 11:19:07;;;;;;;8.02;2.75;;;13.80;99.90;;;;;;5029008;28;20046;-77
2023/06/01 11:21:42;;;;;;;9.27;2.90;;;13.60;99.90;;;;;;5026407;28;20037;-76
2023/06/01 11:24:16;;;;;;;8.43;2.53;;;13.60;99.90;;;;;;5033343;28;20037;-76
2023/06/01 11:26:49;;;;;;;6.53;2.42;;;13.70;99.90;;;;;;5025437;28;20044;-74
2023/06/01 11:29:18;;;;;;;7.53;2.65;;;13.90;99.90;;;;;;5022793;28;20037;-76
2023/06/01 11:31:57;;;;;;;6.72;2.50;;;14.00;99.90;;;;;;5017591;28;20048;-76
2023/06/01 11:34:43;;;;;;;10.23;2.85;;;14.00;99.90;;;;;;5000214;28;20091;-76
2023/06/01 11:37:17;;;;;;;6.88;2.70;;;14.00;99.90;;;;;;5009949;28;20129;-75
2023/06/01 11:39:44;;;;;;;5.60;2.83;;;13.90;99.90;;;;;;5024041;28;20475;-76
2023/06/01 11:42:13;;;;;;;8.32;2.70;;;13.90;99.90;;;;;;5022864;28;20053;-76
2023/06/01 11:44:42;;;;;;;5.82;2.63;;;14.10;99.90;;;;;;5020197;28;20045;-77
2023/06/01 11:47:09;;;;;;;8.98;3.20;;;14.10;99.90;;;;;;5026695;28;20049;-76
2023/06/01 11:49:47;;;;;;;7.18;2.70;;;14.10;99.90;;;;;;5040236;28;20117;-77
2023/06/01 11:52:13;;;;;;;9.90;3.25;;;14.20;99.90;;;;;;5020840;28;20160;-77
2023/06/01 11:54:40;;;;;;;7.47;3.10;;;14.10;99.90;;;;;;5026992;28;20520;-76
2023/06/01 11:57:07;;;;;;;9.52;3.85;;;14.00;99.90;;;;;;5040634;28;20029;-76
2023/06/01 11:59:43;;;;;;;7.95;2.88;;;13.90;99.90;;;;;;5024696;28;20070;-75
2023/06/01 12:02:24;;;;;;;11.10;3.50;;;13.80;99.90;;;;;;5025720;28;20642;-76
2023/06/01 12:04:56;;;;;;;9.02;3.60;;;13.70;99.90;;;;;;5044822;28;20473;-77
2023/06/01 12:07:22;;;;;;;9.83;3.30;;;13.80;99.90;;;;;;5020210;28;20103;-77
2023/06/01 12:09:48;;;;;;;8.27;2.85;;;13.80;99.90;;;;;;5025838;28;20551;-76
2023/06/01 12:12:15;;;;;;;5.03;2.80;;;13.90;99.90;;;;;;5024176;28;20516;-76
2023/06/01 12:14:42;;;;;;;8.18;2.92;;;13.90;99.90;;;;;;5038501;28;20067;-76
2023/06/01 12:17:07;;;;;;;7.28;2.80;;;14.00;99.90;;;;;;5035866;28;20125;-77
2023/06/01 12:19:35;;;;;;;8.90;3.15;;;14.10;99.90;;;;;;5025309;28;20124;-75
2023/06/01 12:22:01;;;;;;;7.47;3.28;;;14.00;99.90;;;;;;5039466;28;20109;-76
2023/06/01 12:24:35;;;;;;;7.15;3.17;;;14.10;99.90;;;;;;5024285;28;20092;-76
2023/06/01 12:27:02;;;;;;;7.45;2.60;;;14.10;99.90;;;;;;5022123;28;20084;-75
2023/06/01 12:29:34;;;;;;;8.55;3.28;;;14.10;99.90;;;;;;5027207;28;20049;-77
2023/06/01 12:32:00;;;;;;;9.18;3.42;;;13.90;99.90;;;;;;5025141;28;20049;-77
2023/06/01 12:34:25;;;;;;;8.65;3.22;;;13.90;99.90;;;;;;5021263;28;20471;-77
2023/06/01 12:36:51;;;;;;;9.52;3.20;;;13.90;99.90;;;;;;5026455;28;20501;-76
2023/06/01 12:39:35;;;;;;;6.80;3.10;;;13.90;99.90;;;;;;5046232;28;20045;-77
2023/06/01 12:42:02;;;;;;;9.07;3.70;;;14.10;99.90;;;;;;5026884;28;20033;-76
2023/06/01 12:44:28;;;;;;;7.40;3.20;;;14.00;99.90;;;;;;5045821;28;20068;-76
2023/06/01 12:47:00;;;;;;;9.57;3.20;;;13.90;99.90;;;;;;5046219;28;20124;-75
2023/06/01 12:49:26;;;;;;;9.57;3.92;;;14.00;99.90;;;;;;5045972;28;20045;-75